Time;durP1;ratioP1;P1;durP2;ratioP2;P2;SDS_P1;SDS_P2;PMS_P1;PMS_P2;Temp;Humidity;BMP_temperature;BMP_pressure;BME280_temperature;BME280_humidity;BME280_pressure;Samples;Min_cycle;Max_cycle;Signal;HPM_P1;HPM_P2
2022/11/30 00:00:05;;;;;;;23.97;17.03;;;6.50;99.90;;;;;;5030409;28;20172;-37
2022/11/30 00:02:37;;;;;;;23.87;16.30;;;6.50;99.90;;;;;;5030170;28;20237;-37
2022/11/30 00:05:03;;;;;;;23.53;16.00;;;6.50;99.90;;;;;;5013260;28;20220;-37
2022/11/30 00:07:30;;;;;;;24.17;16.20;;;6.60;99.90;;;;;;5030253;28;20265;-35
2022/11/30 00:09:56;;;;;;;24.17;15.70;;;6.60;99.90;;;;;;5003276;28;20191;-36
2022/11/30 00:12:21;;;;;;;21.60;14.80;;;6.60;99.90;;;;;;5000401;28;20205;-37
2022/11/30 00:14:47;;;;;;;23.00;16.03;;;6.60;99.90;;;;;;5013534;28;20210;-35
2022/11/30 00:17:13;;;;;;;20.07;14.97;;;6.70;99.90;;;;;;5029379;28;20270;-37
2022/11/30 00:19:39;;;;;;;21.87;15.77;;;6.70;99.90;;;;;;5012940;28;20276;-36
2022/11/30 00:22:05;;;;;;;20.40;14.57;;;6.70;99.90;;;;;;5009992;28;20289;-37
2022/11/30 00:24:30;;;;;;;20.93;14.33;;;6.70;99.90;;;;;;5029550;28;20178;-37
2022/11/30 00:26:56;;;;;;;19.37;15.03;;;6.70;99.90;;;;;;5030288;28;20178;-37
2022/11/30 00:29:22;;;;;;;19.57;14.47;;;6.70;99.90;;;;;;5029572;28;20288;-35
2022/11/30 00:31:48;;;;;;;19.83;13.07;;;6.70;99.90;;;;;;5030430;28;20202;-36
2022/11/30 00:34:14;;;;;;;19.77;13.30;;;6.70;99.90;;;;;;5012582;28;20190;-35
2022/11/30 00:36:39;;;;;;;18.57;13.43;;;6.70;99.90;;;;;;5030995;28;20704;-37
2022/11/30 00:39:05;;;;;;;17.17;12.90;;;6.70;99.90;;;;;;5031962;28;20178;-35
2022/11/30 00:41:31;;;;;;;18.83;13.30;;;6.70;99.90;;;;;;5031044;28;20288;-37
2022/11/30 00:43:58;;;;;;;20.30;13.87;;;6.70;99.90;;;;;;5017205;28;20175;-35
2022/11/30 00:46:24;;;;;;;18.37;13.60;;;6.70;99.90;;;;;;5035060;28;20192;-35
2022/11/30 00:48:49;;;;;;;21.27;15.20;;;6.70;99.90;;;;;;5016550;28;20178;-37
2022/11/30 00:51:15;;;;;;;21.70;14.83;;;6.70;99.90;;;;;;5016892;28;20185;-37
2022/11/30 00:53:41;;;;;;;22.43;15.67;;;6.70;99.90;;;;;;5082664;22;20221;-33
2022/11/30 00:56:08;;;;;;;21.93;15.07;;;6.70;99.90;;;;;;5018639;28;20185;-33
2022/11/30 00:58:34;;;;;;;24.33;15.53;;;6.70;99.90;;;;;;5054105;28;20218;-34
2022/11/30 01:01:00;;;;;;;22.20;15.10;;;6.70;99.90;;;;;;5036520;28;20178;-33
2022/11/30 01:03:26;;;;;;;22.07;14.53;;;6.70;99.90;;;;;;5019859;28;20208;-33
2022/11/30 01:05:52;;;;;;;19.40;13.87;;;6.70;99.90;;;;;;5021350;28;20182;-32
2022/11/30 01:08:18;;;;;;;24.00;15.83;;;6.70;99.90;;;;;;5000137;28;20190;-32
2022/11/30 01:10:46;;;;;;;23.63;15.83;;;6.70;99.90;;;;;;5032581;28;20189;-32
2022/11/30 01:13:12;;;;;;;21.47;15.23;;;6.70;99.90;;;;;;5020556;28;20209;-33
2022/11/30 01:15:41;;;;;;;21.23;14.90;;;6.70;99.90;;;;;;5035926;28;20189;-32
2022/11/30 01:18:07;;;;;;;21.47;15.00;;;6.70;99.90;;;;;;5004697;28;20219;-32
2022/11/30 01:20:33;;;;;;;25.43;15.93;;;6.70;99.90;;;;;;5018299;28;20211;-32
2022/11/30 01:22:59;;;;;;;24.50;15.17;;;6.70;99.90;;;;;;5019405;28;20210;-33
2022/11/30 01:25:25;;;;;;;25.77;15.80;;;6.70;99.90;;;;;;5019137;28;20292;-34
2022/11/30 01:27:51;;;;;;;23.97;15.50;;;6.70;99.90;;;;;;5019546;28;20232;-33
2022/11/30 01:30:17;;;;;;;20.93;14.67;;;6.70;99.90;;;;;;5035603;28;20173;-33
2022/11/30 01:32:43;;;;;;;23.37;15.00;;;6.70;99.90;;;;;;5019547;28;20273;-32
2022/11/30 01:35:09;;;;;;;28.43;17.37;;;6.70;99.90;;;;;;5035625;28;20181;-32
2022/11/30 01:37:35;;;;;;;26.33;15.87;;;6.70;99.90;;;;;;5030279;28;20195;-33
2022/11/30 01:40:01;;;;;;;28.17;16.30;;;6.70;99.90;;;;;;5005191;28;20173;-33
2022/11/30 01:42:27;;;;;;;27.43;16.97;;;6.70;99.90;;;;;;5019931;28;20204;-33
2022/11/30 01:44:58;;;;;;;27.20;17.63;;;6.70;99.90;;;;;;5035641;28;20181;-34
2022/11/30 01:47:33;;;;;;;26.40;16.90;;;6.70;99.90;;;;;;5050637;28;20257;-33
2022/11/30 01:50:16;;;;;;;29.83;17.80;;;6.70;99.90;;;;;;5015675;28;20185;-34
2022/11/30 01:52:46;;;;;;;26.13;16.47;;;6.70;99.90;;;;;;5015916;28;20223;-33
2022/11/30 01:55:11;;;;;;;27.07;17.37;;;6.70;99.90;;;;;;5049043;28;20177;-33
2022/11/30 01:57:43;;;;;;;25.43;16.53;;;6.70;99.90;;;;;;5018293;28;20209;-33
2022/11/30 02:00:12;;;;;;;26.70;16.83;;;6.60;99.90;;;;;;5035559;28;20185;-32
2022/11/30 02:03:04;;;;;;;27.77;16.70;;;6.60;99.90;;;;;;5053612;28;20206;-32
2022/11/30 02:05:33;;;;;;;26.90;17.63;;;6.60;99.90;;;;;;5018854;28;20185;-33
2022/11/30 02:07:59;;;;;;;27.83;17.70;;;6.60;99.90;;;;;;5034691;28;20213;-32
2022/11/30 02:10:32;;;;;;;28.93;16.20;;;6.60;99.90;;;;;;5018633;28;20649;-33
2022/11/30 02:13:15;;;;;;;27.77;16.40;;;6.60;99.90;;;;;;5002258;28;20217;-32
2022/11/30 02:16:04;;;;;;;29.37;16.70;;;6.60;99.90;;;;;;5053013;28;20174;-33
2022/11/30 02:18:46;;;;;;;26.43;16.10;;;6.60;99.90;;;;;;5018260;28;20215;-33
2022/11/30 02:21:37;;;;;;;27.93;16.67;;;6.60;99.90;;;;;;5034898;28;20187;-33
2022/11/30 02:24:49;;;;;;;28.90;16.20;;;6.60;99.90;;;;;;5052462;28;20654;-33
2022/11/30 02:27:50;;;;;;;29.53;16.07;;;6.60;99.90;;;;;;5035514;28;20186;-33
2022/11/30 02:30:18;;;;;;;28.27;16.90;;;6.60;99.90;;;;;;4993751;28;20283;-33
2022/11/30 02:32:49;;;;;;;29.53;16.00;;;6.60;99.90;;;;;;5034851;28;20232;-33
2022/11/30 02:35:21;;;;;;;25.83;15.60;;;6.60;99.90;;;;;;5018337;28;20224;-34
2022/11/30 02:37:49;;;;;;;26.80;16.00;;;6.60;99.90;;;;;;5018221;28;20216;-33
2022/11/30 02:40:17;;;;;;;24.90;16.23;;;6.60;99.90;;;;;;5034763;28;20265;-32
2022/11/30 02:42:43;;;;;;;28.63;16.37;;;6.60;99.90;;;;;;5018111;28;20253;-32
2022/11/30 02:45:10;;;;;;;27.43;16.30;;;6.60;99.90;;;;;;5034797;28;20174;-32
2022/11/30 02:47:59;;;;;;;32.07;18.43;;;6.60;99.90;;;;;;5034714;28;20189;-33
2022/11/30 02:50:34;;;;;;;27.00;16.57;;;6.60;99.90;;;;;;5017826;28;20196;-32
2022/11/30 02:53:00;;;;;;;28.70;17.73;;;6.60;99.90;;;;;;5017818;28;20220;-33
2022/11/30 02:55:27;;;;;;;28.40;17.17;;;6.60;99.90;;;;;;5034551;28;20189;-33
2022/11/30 02:57:53;;;;;;;28.20;17.17;;;6.60;99.90;;;;;;5023741;28;20222;-33
2022/11/30 03:00:19;;;;;;;28.83;16.67;;;6.60;99.90;;;;;;5028233;28;20629;-33
2022/11/30 03:02:45;;;;;;;28.33;17.23;;;6.60;99.90;;;;;;5051834;28;20201;-32
2022/11/30 03:05:11;;;;;;;27.97;16.90;;;6.60;99.90;;;;;;5017151;28;20214;-32
2022/11/30 03:07:37;;;;;;;29.50;17.20;;;6.60;99.90;;;;;;5017250;28;20191;-33
2022/11/30 03:10:05;;;;;;;27.03;16.63;;;6.60;99.90;;;;;;5017436;28;20179;-33
2022/11/30 03:12:31;;;;;;;26.83;17.10;;;6.60;99.90;;;;;;5014039;28;20202;-33
2022/11/30 03:14:56;;;;;;;26.50;15.53;;;6.60;99.90;;;;;;4997897;28;20193;-33
2022/11/30 03:17:22;;;;;;;25.50;16.53;;;6.60;99.90;;;;;;5013011;28;20213;-33
2022/11/30 03:19:48;;;;;;;26.50;16.93;;;6.60;99.90;;;;;;5016721;28;20178;-33
2022/11/30 03:22:14;;;;;;;29.47;17.87;;;6.60;99.90;;;;;;5033742;28;20284;-33
2022/11/30 03:24:40;;;;;;;31.83;17.60;;;6.60;99.90;;;;;;5033771;28;20177;-33
2022/11/30 03:27:06;;;;;;;27.63;17.30;;;6.60;99.90;;;;;;5022546;28;20199;-32
2022/11/30 03:29:32;;;;;;;24.97;16.50;;;6.60;99.90;;;;;;5016040;28;20191;-33
2022/11/30 03:31:57;;;;;;;26.10;16.97;;;6.60;99.90;;;;;;5017082;28;20185;-33
2022/11/30 03:34:25;;;;;;;27.20;16.93;;;6.60;99.90;;;;;;5017012;28;20198;-33
2022/11/30 03:36:51;;;;;;;27.80;16.33;;;6.60;99.90;;;;;;5017206;28;20224;-33
2022/11/30 03:39:17;;;;;;;28.83;16.67;;;6.60;99.90;;;;;;5034015;28;20192;-33
2022/11/30 03:41:43;;;;;;;30.23;17.57;;;6.50;99.90;;;;;;5051429;28;20178;-33
2022/11/30 03:44:09;;;;;;;27.50;16.97;;;6.50;99.90;;;;;;5051498;28;20169;-33
2022/11/30 03:46:35;;;;;;;28.70;17.47;;;6.50;99.90;;;;;;5033466;28;20228;-33
2022/11/30 03:49:00;;;;;;;25.73;16.43;;;6.50;99.90;;;;;;5016811;28;20213;-32
2022/11/30 03:51:26;;;;;;;28.37;17.50;;;6.50;99.90;;;;;;5051433;28;20173;-32
2022/11/30 03:53:52;;;;;;;26.10;16.57;;;6.50;99.90;;;;;;5033467;28;20208;-33
2022/11/30 03:56:18;;;;;;;23.70;16.07;;;6.50;99.90;;;;;;5017238;28;20193;-33
2022/11/30 03:58:44;;;;;;;26.97;16.90;;;6.50;99.90;;;;;;5013585;28;20193;-32
2022/11/30 04:01:15;;;;;;;27.43;16.77;;;6.40;99.90;;;;;;5032466;28;20189;-33
2022/11/30 04:03:42;;;;;;;27.93;17.73;;;6.40;99.90;;;;;;5016000;28;20224;-33
2022/11/30 04:06:09;;;;;;;29.37;17.53;;;6.40;99.90;;;;;;5016797;28;20200;-33
2022/11/30 04:08:37;;;;;;;25.80;17.20;;;6.30;99.90;;;;;;5032746;28;20185;-32
2022/11/30 04:11:04;;;;;;;30.27;18.37;;;6.30;99.90;;;;;;5033108;28;20177;-32
2022/11/30 04:13:31;;;;;;;25.17;16.27;;;6.30;99.90;;;;;;5016392;28;20200;-33
2022/11/30 04:15:57;;;;;;;27.53;17.27;;;6.30;99.90;;;;;;5050763;28;20173;-32
2022/11/30 04:18:24;;;;;;;29.83;17.73;;;6.20;99.90;;;;;;5014119;28;20224;-32
2022/11/30 04:20:51;;;;;;;27.23;16.50;;;6.20;99.90;;;;;;5016636;28;20185;-33
2022/11/30 04:23:18;;;;;;;28.13;16.97;;;6.30;99.90;;;;;;5032742;28;20205;-32
2022/11/30 04:25:44;;;;;;;25.47;15.80;;;6.30;99.90;;;;;;5032784;28;20196;-33
2022/11/30 04:28:10;;;;;;;28.30;17.37;;;6.30;99.90;;;;;;5032940;28;20181;-32
2022/11/30 04:30:37;;;;;;;25.40;16.07;;;6.30;99.90;;;;;;5013517;28;20186;-33
2022/11/30 04:33:04;;;;;;;29.00;17.20;;;6.40;99.90;;;;;;5015560;28;20197;-33
2022/11/30 04:35:31;;;;;;;28.00;16.67;;;6.40;99.90;;;;;;5047352;28;20192;-33
2022/11/30 04:37:57;;;;;;;27.23;16.47;;;6.40;99.90;;;;;;5014934;28;20205;-31
2022/11/30 04:40:23;;;;;;;22.93;15.87;;;6.40;99.90;;;;;;5029434;28;20181;-32
2022/11/30 04:42:49;;;;;;;24.40;14.97;;;6.40;99.90;;;;;;5014910;28;20205;-32
2022/11/30 04:45:15;;;;;;;25.07;15.97;;;6.40;99.90;;;;;;5030900;28;20215;-33
2022/11/30 04:47:43;;;;;;;24.33;15.43;;;6.40;99.90;;;;;;5031985;28;20189;-31
2022/11/30 04:50:09;;;;;;;27.37;16.27;;;6.40;99.90;;;;;;5015793;28;20180;-32
2022/11/30 04:52:35;;;;;;;27.80;16.00;;;6.40;99.90;;;;;;5032268;28;20373;-32
2022/11/30 04:55:03;;;;;;;24.17;15.47;;;6.40;99.90;;;;;;5015213;28;20192;-30
2022/11/30 04:57:30;;;;;;;23.63;15.40;;;6.40;99.90;;;;;;5029458;28;20205;-31
2022/11/30 04:59:56;;;;;;;25.87;15.37;;;6.40;99.90;;;;;;5031883;28;20268;-32
2022/11/30 05:02:22;;;;;;;24.53;16.03;;;6.40;99.90;;;;;;5031647;28;20280;-32
2022/11/30 05:04:47;;;;;;;22.57;15.80;;;6.40;99.90;;;;;;5015752;28;20213;-32
2022/11/30 05:07:13;;;;;;;23.83;15.07;;;6.40;99.90;;;;;;5031053;28;20276;-31
2022/11/30 05:09:39;;;;;;;23.23;15.87;;;6.40;99.90;;;;;;5004218;28;20181;-32
2022/11/30 05:12:05;;;;;;;25.20;15.13;;;6.40;99.90;;;;;;5016135;28;20263;-30
2022/11/30 05:14:31;;;;;;;25.77;16.07;;;6.40;99.90;;;;;;5015343;28;20182;-31
2022/11/30 05:16:57;;;;;;;23.90;15.03;;;6.40;99.90;;;;;;5032042;28;20215;-32
2022/11/30 05:19:22;;;;;;;23.13;14.83;;;6.40;99.90;;;;;;5048250;28;20177;-32
2022/11/30 05:21:48;;;;;;;23.40;15.40;;;6.30;99.90;;;;;;5031992;28;20182;-33
2022/11/30 05:24:14;;;;;;;21.43;13.57;;;6.30;99.90;;;;;;5015812;28;20182;-32
2022/11/30 05:26:40;;;;;;;23.13;14.33;;;6.30;99.90;;;;;;5013102;28;20224;-32
2022/11/30 05:29:06;;;;;;;20.83;13.50;;;6.30;99.90;;;;;;5016735;28;20181;-33
2022/11/30 05:31:32;;;;;;;19.83;12.77;;;6.20;99.90;;;;;;5019678;28;20189;-33
2022/11/30 05:33:59;;;;;;;22.47;15.03;;;6.20;99.90;;;;;;5034792;28;20284;-32
2022/11/30 05:36:24;;;;;;;20.40;13.90;;;6.20;99.90;;;;;;5007879;28;20181;-33
2022/11/30 05:38:50;;;;;;;19.03;13.63;;;6.20;99.90;;;;;;5035343;28;20200;-32
2022/11/30 05:41:16;;;;;;;19.43;13.17;;;6.20;99.90;;;;;;5019528;28;20189;-32
2022/11/30 05:43:42;;;;;;;19.87;13.17;;;6.20;99.90;;;;;;5018585;28;20194;-32
2022/11/30 05:46:09;;;;;;;20.00;13.47;;;6.20;99.90;;;;;;5013502;28;20703;-32
2022/11/30 05:48:35;;;;;;;21.20;13.63;;;6.20;99.90;;;;;;5033857;28;20280;-33
2022/11/30 05:51:14;;;;;;;21.00;13.60;;;6.20;99.90;;;;;;5049141;28;20181;-32
2022/11/30 05:53:40;;;;;;;21.43;13.23;;;6.20;99.90;;;;;;5017129;28;20235;-32
2022/11/30 05:56:12;;;;;;;23.13;13.73;;;6.20;99.90;;;;;;5035730;28;20181;-32
2022/11/30 05:58:38;;;;;;;20.40;13.57;;;6.20;99.90;;;;;;5033649;28;20237;-32
2022/11/30 06:01:05;;;;;;;19.53;13.67;;;6.20;99.90;;;;;;5044216;28;20181;-32
2022/11/30 06:03:33;;;;;;;18.97;13.40;;;6.20;99.90;;;;;;5035015;28;20201;-32
2022/11/30 06:05:59;;;;;;;21.50;13.97;;;6.30;99.90;;;;;;5034061;28;20184;-32
2022/11/30 06:08:26;;;;;;;22.03;13.93;;;6.30;99.90;;;;;;5034850;28;20202;-32
2022/11/30 06:10:52;;;;;;;19.77;13.20;;;6.30;99.90;;;;;;5034962;28;20430;-33
2022/11/30 06:13:18;;;;;;;21.07;13.20;;;6.30;99.90;;;;;;5053215;28;20242;-32
2022/11/30 06:15:44;;;;;;;21.17;13.03;;;6.30;99.90;;;;;;5018699;28;20181;-32
2022/11/30 06:18:12;;;;;;;17.67;11.40;;;6.30;99.90;;;;;;5018537;28;20210;-32
2022/11/30 06:20:38;;;;;;;18.73;12.00;;;6.20;99.90;;;;;;5035048;28;20173;-30
2022/11/30 06:23:04;;;;;;;19.73;12.63;;;6.20;99.90;;;;;;5035005;28;20200;-32
2022/11/30 06:25:30;;;;;;;18.37;11.87;;;6.20;99.90;;;;;;5034802;28;20250;-30
2022/11/30 06:27:56;;;;;;;18.53;12.03;;;6.20;99.90;;;;;;5035093;28;20211;-31
2022/11/30 06:30:22;;;;;;;19.93;12.27;;;6.30;99.90;;;;;;5035390;28;20188;-30
2022/11/30 06:32:50;;;;;;;18.03;11.53;;;6.30;99.90;;;;;;5000232;28;20699;-30
2022/11/30 06:35:16;;;;;;;17.33;11.63;;;6.30;99.90;;;;;;5009465;28;20343;-31
2022/11/30 06:37:42;;;;;;;17.53;11.40;;;6.30;99.90;;;;;;5017803;28;20205;-31
2022/11/30 06:40:10;;;;;;;17.97;11.63;;;6.30;99.90;;;;;;5052030;28;20201;-30
2022/11/30 06:42:36;;;;;;;16.70;11.50;;;6.40;99.90;;;;;;5017790;28;20206;-30
2022/11/30 06:45:04;;;;;;;19.63;11.87;;;6.40;99.90;;;;;;5014265;28;20178;-30
2022/11/30 06:47:29;;;;;;;17.07;11.60;;;6.40;99.90;;;;;;5052793;28;20181;-31
2022/11/30 06:49:55;;;;;;;17.33;12.23;;;6.40;99.90;;;;;;5034257;28;20190;-31
2022/11/30 06:52:21;;;;;;;20.33;12.33;;;6.40;99.90;;;;;;5037977;22;20268;-88
2022/11/30 06:54:47;;;;;;;18.93;12.10;;;6.40;99.90;;;;;;4997254;28;20177;-88
2022/11/30 06:57:13;;;;;;;18.10;11.97;;;6.40;99.90;;;;;;5012865;28;20217;-88
2022/11/30 06:59:41;;;;;;;16.80;11.07;;;6.40;99.90;;;;;;5012905;28;20185;-88
2022/11/30 07:02:15;;;;;;;17.23;11.60;;;6.30;99.90;;;;;;5013205;28;20175;-88
2022/11/30 07:04:40;;;;;;;18.73;11.07;;;6.30;99.90;;;;;;5013077;28;20194;-88
2022/11/30 07:07:06;;;;;;;17.47;11.73;;;6.40;99.90;;;;;;4996299;28;20283;-87
2022/11/30 07:09:36;;;;;;;16.43;10.37;;;6.40;99.90;;;;;;4996777;28;20189;-88
2022/11/30 07:12:03;;;;;;;19.37;11.33;;;6.40;99.90;;;;;;4996506;28;20186;-88
2022/11/30 07:14:29;;;;;;;20.13;11.97;;;6.40;99.90;;;;;;4996552;28;20675;-88
2022/11/30 07:16:56;;;;;;;16.77;11.67;;;6.40;99.90;;;;;;4995935;28;20256;-87
2022/11/30 07:19:22;;;;;;;18.37;11.43;;;6.40;99.90;;;;;;5012270;28;20183;-88
2022/11/30 07:21:48;;;;;;;18.17;12.07;;;6.40;99.90;;;;;;5012534;28;20192;-88
2022/11/30 07:27:01;;;;;;;18.40;12.27;;;6.40;99.90;;;;;;4992851;28;20281;-88
2022/11/30 07:29:27;;;;;;;19.50;12.77;;;6.40;99.90;;;;;;4992895;28;20210;-85
2022/11/30 07:31:53;;;;;;;22.63;12.10;;;6.40;99.90;;;;;;5010715;28;20183;-91
2022/11/30 07:34:20;;;;;;;18.80;12.30;;;6.40;99.90;;;;;;5012627;28;20188;-89
2022/11/30 07:36:46;;;;;;;20.33;12.80;;;6.40;99.90;;;;;;5012348;28;20213;-89
2022/11/30 07:39:13;;;;;;;18.50;12.23;;;6.40;99.90;;;;;;5012476;28;20240;-89
2022/11/30 07:41:40;;;;;;;20.20;12.90;;;6.40;99.90;;;;;;5012481;28;20175;-88
2022/11/30 07:44:09;;;;;;;18.03;12.13;;;6.40;99.90;;;;;;5012177;28;20269;-89
2022/11/30 07:46:36;;;;;;;17.87;11.67;;;6.40;99.90;;;;;;5012226;28;20282;-89
2022/11/30 07:49:03;;;;;;;22.23;13.03;;;6.40;99.90;;;;;;5012309;28;20182;-89
2022/11/30 07:51:29;;;;;;;18.97;12.73;;;6.40;99.90;;;;;;5012325;28;20175;-88
2022/11/30 07:53:56;;;;;;;16.40;11.83;;;6.40;99.90;;;;;;4995660;28;20240;-88
2022/11/30 07:56:23;;;;;;;16.97;11.80;;;6.40;99.90;;;;;;5010301;28;20209;-88
2022/11/30 07:58:52;;;;;;;16.93;11.53;;;6.40;99.90;;;;;;5011599;28;20203;-88
2022/11/30 08:01:21;;;;;;;18.87;11.93;;;6.40;99.90;;;;;;5012222;28;20205;-88
2022/11/30 08:03:47;;;;;;;16.37;11.67;;;6.40;99.90;;;;;;5011884;28;20909;-88
2022/11/30 08:06:20;;;;;;;18.63;11.90;;;6.40;99.90;;;;;;4993894;28;20270;-88
2022/11/30 08:08:48;;;;;;;18.13;11.90;;;6.50;99.90;;;;;;4992296;28;20163;-88
2022/11/30 08:11:19;;;;;;;18.67;12.13;;;6.50;99.90;;;;;;4992271;28;20186;-88
2022/11/30 08:13:45;;;;;;;17.53;12.07;;;6.50;99.90;;;;;;4992680;28;20696;-88
2022/11/30 08:16:16;;;;;;;16.30;11.40;;;6.50;99.90;;;;;;4976154;28;20289;-88
2022/11/30 08:18:42;;;;;;;20.10;13.53;;;6.60;99.90;;;;;;4992177;28;20196;-87
2022/11/30 08:21:11;;;;;;;19.10;12.60;;;6.60;99.90;;;;;;4992427;28;20336;-88
2022/11/30 08:23:48;;;;;;;16.67;11.97;;;6.70;99.90;;;;;;4991983;28;20219;-88
2022/11/30 08:26:17;;;;;;;19.17;13.10;;;6.70;99.90;;;;;;4992044;28;20191;-88
2022/11/30 08:28:44;;;;;;;17.93;12.13;;;6.70;99.90;;;;;;4991934;28;20190;-88
2022/11/30 08:31:12;;;;;;;17.53;12.67;;;6.70;99.90;;;;;;4976112;28;20173;-88
2022/11/30 08:33:38;;;;;;;18.97;12.30;;;6.70;99.90;;;;;;4992452;28;20187;-88
2022/11/30 08:36:09;;;;;;;18.97;12.23;;;6.70;99.90;;;;;;5008982;28;20206;-88
2022/11/30 08:38:36;;;;;;;17.93;12.40;;;6.70;99.90;;;;;;5011785;28;20217;-87
2022/11/30 08:41:03;;;;;;;20.00;12.77;;;6.80;99.90;;;;;;5011717;28;20181;-88
2022/11/30 08:43:29;;;;;;;17.33;12.33;;;6.80;99.90;;;;;;4995273;28;20186;-88
2022/11/30 08:45:54;;;;;;;16.93;11.50;;;6.80;99.90;;;;;;4995413;28;20209;-88
2022/11/30 08:48:20;;;;;;;15.90;11.30;;;6.90;99.90;;;;;;4995234;28;20193;-87
2022/11/30 08:50:46;;;;;;;16.03;11.67;;;6.90;99.90;;;;;;4995306;28;20184;-88
2022/11/30 08:53:12;;;;;;;16.77;11.97;;;7.00;99.90;;;;;;5008170;28;20258;-88
2022/11/30 08:55:38;;;;;;;16.30;10.77;;;7.00;99.90;;;;;;5028991;28;20260;-88
2022/11/30 08:58:04;;;;;;;16.93;11.43;;;7.10;99.90;;;;;;5012000;28;20218;-88
2022/11/30 09:00:30;;;;;;;16.60;11.00;;;7.10;99.90;;;;;;4995722;28;20243;-88
2022/11/30 09:02:56;;;;;;;16.37;10.80;;;7.10;99.90;;;;;;4994797;28;20279;-88
2022/11/30 09:05:22;;;;;;;15.10;10.50;;;7.10;99.90;;;;;;4997841;28;20225;-88
2022/11/30 09:07:48;;;;;;;15.83;10.83;;;7.10;99.90;;;;;;4998174;28;20244;-88
2022/11/30 09:10:13;;;;;;;15.03;10.77;;;7.20;99.90;;;;;;4998896;28;20187;-88
2022/11/30 09:12:40;;;;;;;17.53;11.50;;;7.20;99.90;;;;;;4998763;28;20186;-88
2022/11/30 09:15:08;;;;;;;14.87;10.80;;;7.20;99.90;;;;;;4999071;28;20245;-88
2022/11/30 09:17:34;;;;;;;18.93;11.30;;;7.20;99.90;;;;;;4998710;28;20231;-88
2022/11/30 09:20:00;;;;;;;14.80;10.63;;;7.20;99.90;;;;;;5015043;28;20214;-88
2022/11/30 09:22:27;;;;;;;16.67;11.50;;;7.30;99.90;;;;;;5015157;28;20206;-88
2022/11/30 09:25:09;;;;;;;15.90;11.23;;;7.30;99.90;;;;;;4998447;28;20203;-88
2022/11/30 09:27:35;;;;;;;16.90;11.53;;;7.30;99.90;;;;;;4998521;28;20186;-87
2022/11/30 09:30:01;;;;;;;15.57;10.57;;;7.30;99.90;;;;;;5015313;28;20175;-88
2022/11/30 09:32:28;;;;;;;15.60;11.00;;;7.30;99.90;;;;;;5002034;28;20196;-89
2022/11/30 09:34:54;;;;;;;14.57;10.37;;;7.30;99.90;;;;;;4986918;28;20179;-88
2022/11/30 09:37:21;;;;;;;14.30;10.13;;;7.30;99.90;;;;;;4998132;28;20310;-88
2022/11/30 09:39:46;;;;;;;15.50;10.73;;;7.30;99.90;;;;;;4997987;28;20191;-88
2022/11/30 09:42:24;;;;;;;15.27;11.23;;;7.40;99.90;;;;;;5004683;28;20173;-87
2022/11/30 09:45:03;;;;;;;15.43;10.87;;;7.30;99.90;;;;;;4994948;28;20172;-88
2022/11/30 09:47:50;;;;;;;14.07;9.93;;;7.40;99.90;;;;;;5027783;28;20187;-88
2022/11/30 09:50:21;;;;;;;15.57;10.37;;;7.40;99.90;;;;;;4995672;28;20200;-88
2022/11/30 09:53:21;;;;;;;15.60;10.13;;;7.50;99.90;;;;;;5007948;28;20198;-88
2022/11/30 09:55:47;;;;;;;14.17;10.07;;;7.30;99.90;;;;;;4987418;28;20277;-88
2022/11/30 09:58:43;;;;;;;14.83;10.20;;;7.40;99.90;;;;;;5014214;28;20202;-88
2022/11/30 10:01:17;;;;;;;14.03;9.23;;;7.40;99.90;;;;;;4992894;28;20240;-88
2022/11/30 10:03:43;;;;;;;14.37;9.57;;;7.40;99.90;;;;;;5013805;28;20183;-88
2022/11/30 10:06:23;;;;;;;15.80;10.80;;;7.50;99.90;;;;;;5013983;28;20221;-87
2022/11/30 10:09:06;;;;;;;15.07;9.93;;;7.50;99.90;;;;;;4997775;28;20179;-88
2022/11/30 10:11:41;;;;;;;15.73;9.73;;;7.60;99.90;;;;;;5011441;28;20186;-88
2022/11/30 10:14:50;;;;;;;15.87;10.53;;;7.60;99.90;;;;;;4994879;28;20183;-88
2022/11/30 10:17:28;;;;;;;15.43;11.17;;;7.60;99.90;;;;;;4978332;28;20273;-87
2022/11/30 10:20:24;;;;;;;15.03;10.53;;;7.70;99.90;;;;;;4994809;28;20174;-88
2022/11/30 10:22:58;;;;;;;16.00;10.90;;;7.70;99.90;;;;;;4990241;28;20244;-88
2022/11/30 10:25:38;;;;;;;14.60;10.33;;;7.70;99.90;;;;;;5013998;28;20205;-87
2022/11/30 10:28:35;;;;;;;13.37;8.90;;;7.70;99.90;;;;;;5013697;28;20210;-88
2022/11/30 10:31:02;;;;;;;14.30;9.13;;;7.70;99.90;;;;;;4974195;28;20191;-88
2022/11/30 10:33:37;;;;;;;14.13;8.70;;;7.70;99.90;;;;;;5022836;28;20190;-88
2022/11/30 10:36:14;;;;;;;13.73;8.60;;;7.70;99.90;;;;;;4998020;28;20210;-87
2022/11/30 10:38:54;;;;;;;11.93;8.00;;;7.70;99.90;;;;;;5013712;28;20206;-87
2022/11/30 10:41:45;;;;;;;14.17;9.47;;;7.70;99.90;;;;;;5014007;28;20175;-87
2022/11/30 10:44:25;;;;;;;11.87;8.40;;;7.70;99.90;;;;;;5013697;28;20206;-88
2022/11/30 10:46:59;;;;;;;12.80;8.70;;;7.70;99.90;;;;;;5013905;28;20250;-88
2022/11/30 10:49:28;;;;;;;13.57;8.53;;;7.80;99.90;;;;;;5014382;28;20171;-89
2022/11/30 10:51:59;;;;;;;12.63;8.80;;;7.80;99.90;;;;;;5013965;28;20182;-88
2022/11/30 10:54:25;;;;;;;12.67;8.93;;;7.80;99.90;;;;;;5014232;28;20195;-89
2022/11/30 10:56:51;;;;;;;12.63;9.00;;;7.90;99.90;;;;;;4996999;28;20207;-89
2022/11/30 10:59:29;;;;;;;13.83;8.80;;;7.90;99.90;;;;;;5014148;28;20183;-89
2022/11/30 11:01:55;;;;;;;15.73;10.47;;;8.00;99.90;;;;;;5013725;28;20175;-89
2022/11/30 11:04:24;;;;;;;13.27;9.53;;;8.00;99.90;;;;;;5010500;28;20195;-89
2022/11/30 11:07:11;;;;;;;14.87;9.63;;;8.10;99.90;;;;;;4993301;28;20211;-75
2022/11/30 11:09:46;;;;;;;12.80;9.10;;;8.10;99.90;;;;;;4976921;28;20192;-88
2022/11/30 11:12:26;;;;;;;13.10;9.07;;;8.20;99.90;;;;;;4993324;28;20179;-88
2022/11/30 11:15:07;;;;;;;11.77;8.50;;;8.20;99.90;;;;;;4993153;28;20174;-88
2022/11/30 11:17:33;;;;;;;12.33;7.93;;;8.20;99.90;;;;;;5008889;28;20211;-88
2022/11/30 11:19:59;;;;;;;10.93;6.53;;;8.20;99.90;;;;;;4993600;28;20184;-88
2022/11/30 11:22:28;;;;;;;9.77;6.47;;;8.10;99.90;;;;;;4993144;28;20274;-88
2022/11/30 11:25:32;;;;;;;10.17;6.50;;;8.10;99.90;;;;;;4993361;28;20171;-88
2022/11/30 11:28:14;;;;;;;9.43;6.90;;;8.10;99.90;;;;;;4957074;28;20278;-88
2022/11/30 11:30:40;;;;;;;11.27;7.20;;;8.10;99.90;;;;;;5009627;28;20273;-88
2022/11/30 11:33:12;;;;;;;10.53;7.20;;;8.10;99.90;;;;;;5008821;28;20184;-88
2022/11/30 11:35:48;;;;;;;9.10;6.70;;;8.10;99.90;;;;;;5029547;28;20215;-88
2022/11/30 11:38:23;;;;;;;8.93;5.80;;;8.10;99.90;;;;;;5028094;28;20211;-88
2022/11/30 11:40:54;;;;;;;9.40;5.93;;;8.10;99.90;;;;;;4997212;28;20187;-88
2022/11/30 11:43:21;;;;;;;10.10;6.20;;;8.10;99.90;;;;;;4996651;28;20259;-88
2022/11/30 11:45:53;;;;;;;11.47;6.67;;;8.10;99.90;;;;;;4996217;28;20202;-88
2022/11/30 11:48:40;;;;;;;10.97;6.70;;;8.00;99.90;;;;;;5012861;28;20203;-87
2022/11/30 11:51:08;;;;;;;9.93;6.80;;;8.00;99.90;;;;;;5012774;28;20200;-88
2022/11/30 11:53:46;;;;;;;9.03;6.73;;;8.00;99.90;;;;;;5013706;28;20187;-88
2022/11/30 11:56:32;;;;;;;9.57;6.80;;;7.90;99.90;;;;;;4996336;28;20190;-88
2022/11/30 11:59:09;;;;;;;10.53;7.33;;;7.90;99.90;;;;;;5012213;28;20309;-88
2022/11/30 12:01:59;;;;;;;9.17;6.97;;;8.00;99.90;;;;;;4995520;28;20250;-88
2022/11/30 12:04:44;;;;;;;11.07;8.13;;;8.00;99.90;;;;;;5011802;28;20289;-89
2022/11/30 12:07:37;;;;;;;13.53;8.23;;;7.90;99.90;;;;;;5012667;28;20275;-88
2022/11/30 12:10:23;;;;;;;13.30;8.50;;;7.90;99.90;;;;;;4995746;28;20195;-88
2022/11/30 12:12:49;;;;;;;10.30;7.30;;;7.90;99.90;;;;;;4996159;28;20175;-88
2022/11/30 12:15:15;;;;;;;11.40;8.13;;;7.80;99.90;;;;;;5011622;28;20209;-88
2022/11/30 12:18:01;;;;;;;10.70;7.67;;;7.70;99.90;;;;;;4995752;28;20258;-87
2022/11/30 12:20:40;;;;;;;10.17;7.37;;;7.70;99.90;;;;;;4994776;28;20171;-88
2022/11/30 12:23:17;;;;;;;8.87;6.27;;;7.70;99.90;;;;;;4985071;28;20225;-87
2022/11/30 12:26:19;;;;;;;10.20;7.73;;;7.70;99.90;;;;;;5008636;28;20199;-87
2022/11/30 12:29:14;;;;;;;9.70;7.00;;;7.80;99.90;;;;;;4965276;28;20214;-87
2022/11/30 12:32:08;;;;;;;8.20;6.30;;;7.70;99.90;;;;;;4983085;28;20180;-87
2022/11/30 12:35:48;;;;;;;9.00;6.73;;;7.80;99.90;;;;;;4976896;28;20176;-87
2022/11/30 12:38:32;;;;;;;12.87;7.07;;;7.80;99.90;;;;;;4922132;28;20241;-87
2022/11/30 12:41:04;;;;;;;9.97;6.63;;;7.80;99.90;;;;;;4940240;29;20180;-87
2022/11/30 12:43:39;;;;;;;10.07;6.60;;;7.70;99.90;;;;;;4990440;28;20247;-87
2022/11/30 12:46:21;;;;;;;8.20;6.03;;;7.70;99.90;;;;;;4998653;28;20245;-87
2022/11/30 12:49:06;;;;;;;9.23;5.63;;;7.70;99.90;;;;;;4988402;28;20179;-87
2022/11/30 12:52:01;;;;;;;7.90;6.00;;;7.70;99.90;;;;;;4995777;28;20180;-87
2022/11/30 12:54:42;;;;;;;10.83;6.80;;;7.70;99.90;;;;;;5012150;28;20205;-87
2022/11/30 12:57:33;;;;;;;10.00;6.43;;;7.60;99.90;;;;;;4998776;28;20272;-87
2022/11/30 13:00:10;;;;;;;9.03;6.17;;;7.60;99.90;;;;;;5017839;28;20237;-87